Time;durP1;ratioP1;P1;durP2;ratioP2;P2;SDS_P1;SDS_P2;PMS_P1;PMS_P2;Temp;Humidity;BMP_temperature;BMP_pressure;BME280_temperature;BME280_humidity;BME280_pressure;Samples;Min_cycle;Max_cycle;Signal;HPM_P1;HPM_P2
2022/02/23 00:01:07;;;;;;;4.97;3.17;;;;;;;17.07;52.56;99250.52;1744676;80;21018;-60
2022/02/23 00:03:34;;;;;;;5.15;3.35;;;;;;;17.05;52.55;99253.42;1766430;80;22442;-59
2022/02/23 00:06:00;;;;;;;5.10;3.45;;;;;;;17.03;52.55;99258.19;1772208;80;21122;-60
2022/02/23 00:08:26;;;;;;;5.72;3.08;;;;;;;17.01;52.54;99258.12;1776532;80;21026;-59
2022/02/23 00:10:53;;;;;;;5.33;3.35;;;;;;;16.99;52.55;99254.84;1778486;80;21127;-59
2022/02/23 00:13:19;;;;;;;4.22;3.20;;;;;;;16.96;52.53;99257.46;1768019;80;21083;-59
2022/02/23 00:15:46;;;;;;;4.92;3.55;;;;;;;16.94;52.53;99258.70;1788050;78;21044;-61
2022/02/23 00:18:15;;;;;;;4.35;3.37;;;;;;;16.93;52.53;99255.73;1740725;80;21456;-60
2022/02/23 00:20:41;;;;;;;3.52;2.90;;;;;;;16.89;52.52;99250.80;1760932;80;21013;-59
2022/02/23 00:23:08;;;;;;;5.10;2.95;;;;;;;16.87;52.51;99254.76;1785836;79;21858;-60
2022/02/23 00:25:35;;;;;;;6.47;3.27;;;;;;;16.85;52.53;99256.31;1783796;80;21002;-59
2022/02/23 00:28:01;;;;;;;4.80;3.40;;;;;;;16.83;52.53;99262.42;1787798;80;21561;-59
2022/02/23 00:30:28;;;;;;;5.05;3.70;;;;;;;16.81;52.53;99258.30;1795069;78;21112;-58
2022/02/23 00:32:55;;;;;;;4.08;3.20;;;;;;;16.79;52.54;99252.33;1791884;80;21037;-60
2022/02/23 00:35:22;;;;;;;3.60;2.90;;;;;;;16.77;52.54;99253.89;1794125;78;21814;-59
2022/02/23 00:40:50;;;;;;;3.47;3.00;;;;;;;16.77;52.53;99249.87;1840649;76;22466;-58
2022/02/23 00:43:16;;;;;;;4.55;3.58;;;;;;;16.73;52.50;99253.19;1812489;78;20993;-60
2022/02/23 00:45:42;;;;;;;3.55;3.12;;;;;;;16.70;52.51;99248.56;1821949;78;21124;-58
2022/02/23 00:48:09;;;;;;;5.70;3.50;;;;;;;16.69;52.51;99254.98;1812326;78;20954;-58
2022/02/23 00:50:35;;;;;;;4.67;3.62;;;;;;;16.67;52.51;99255.73;1805951;77;21494;-59
2022/02/23 00:53:02;;;;;;;3.67;3.05;;;;;;;16.65;52.51;99259.16;1816189;78;20989;-58
2022/02/23 00:55:29;;;;;;;3.72;2.92;;;;;;;16.63;52.52;99258.55;1829200;77;21461;-59
2022/02/23 00:57:56;;;;;;;4.45;3.55;;;;;;;16.61;52.53;99261.98;1828313;77;21135;-59
2022/02/23 01:00:22;;;;;;;5.08;3.12;;;;;;;16.59;52.52;99261.37;1811117;78;21044;-59
2022/02/23 01:02:49;;;;;;;4.97;3.52;;;;;;;16.57;52.52;99259.94;1821084;78;21060;-60
2022/02/23 01:05:15;;;;;;;4.83;3.02;;;;;;;16.57;52.53;99267.98;1799441;78;21494;-59
2022/02/23 01:07:42;;;;;;;5.15;3.08;;;;;;;16.55;52.54;99265.51;1802518;77;21041;-59
2022/02/23 01:10:09;;;;;;;4.25;2.90;;;;;;;16.53;52.56;99277.50;1816805;78;21126;-60
2022/02/23 01:12:38;;;;;;;4.28;3.42;;;;;;;16.50;52.55;99284.95;1824812;78;20994;-59
2022/02/23 01:15:06;;;;;;;3.70;3.30;;;;;;;16.49;52.56;99279.80;1826252;78;21493;-59
2022/02/23 01:17:34;;;;;;;4.20;3.33;;;;;;;16.47;52.58;99280.53;1813722;78;21044;-60
2022/02/23 01:20:00;;;;;;;3.77;2.90;;;;;;;16.45;52.59;99284.77;1818019;78;21033;-59
2022/02/23 01:22:27;;;;;;;4.58;3.20;;;;;;;16.44;52.60;99278.30;1825603;78;21091;-59
2022/02/23 01:24:54;;;;;;;4.83;3.35;;;;;;;16.42;52.60;99292.45;1820423;78;21525;-59
2022/02/23 01:27:20;;;;;;;3.87;3.10;;;;;;;16.41;52.58;99294.28;1815733;78;21100;-59
2022/02/23 01:29:46;;;;;;;3.77;3.00;;;;;;;16.40;52.59;99292.66;1822074;78;21554;-59
2022/02/23 01:32:13;;;;;;;3.95;2.80;;;;;;;16.39;52.60;99295.55;1814364;78;21088;-58
2022/02/23 01:34:40;;;;;;;3.62;2.92;;;;;;;16.37;52.59;99296.28;1805227;78;21136;-59
2022/02/23 01:37:09;;;;;;;5.50;3.35;;;;;;;16.36;52.60;99298.65;1811253;78;20983;-59
2022/02/23 01:39:35;;;;;;;3.92;3.20;;;;;;;16.34;52.62;99298.05;1825625;78;21029;-61
2022/02/23 01:42:01;;;;;;;4.87;3.72;;;;;;;16.32;52.62;99299.59;1806844;78;21037;-60
2022/02/23 01:44:29;;;;;;;4.33;3.92;;;;;;;16.30;52.63;99308.37;1824934;78;21076;-58
2022/02/23 01:46:55;;;;;;;5.35;3.33;;;;;;;16.30;52.64;99308.37;1825182;78;21573;-59
2022/02/23 01:49:23;;;;;;;4.20;3.20;;;;;;;16.28;52.65;99318.49;1823230;78;21064;-59
2022/02/23 01:51:50;;;;;;;3.37;2.92;;;;;;;16.25;52.66;99315.73;1814561;78;21069;-60
2022/02/23 01:54:17;;;;;;;3.42;3.12;;;;;;;16.25;52.66;99322.44;1807213;78;21540;-58
2022/02/23 01:56:43;;;;;;;4.42;3.15;;;;;;;16.24;52.65;99327.48;1818356;78;21041;-59
2022/02/23 01:59:10;;;;;;;3.87;2.85;;;;;;;16.22;52.64;99333.58;1818748;78;21189;-61
2022/02/23 02:01:36;;;;;;;6.22;3.50;;;;;;;16.21;52.67;99337.31;1828339;77;21009;-63
2022/02/23 02:04:03;;;;;;;5.28;2.95;;;;;;;16.20;52.70;99338.33;1820853;77;21006;-59
2022/02/23 02:06:30;;;;;;;3.10;2.77;;;;;;;16.19;52.66;99335.89;1824187;77;21017;-59
2022/02/23 02:08:57;;;;;;;3.50;2.80;;;;;;;16.18;52.67;99340.92;1804820;77;21615;-60
2022/02/23 02:11:24;;;;;;;3.42;3.10;;;;;;;16.16;52.69;99338.45;1820980;78;21142;-59
2022/02/23 02:13:50;;;;;;;4.53;2.80;;;;;;;16.15;52.72;99342.69;1822324;78;21516;-61
2022/02/23 02:16:17;;;;;;;4.62;3.25;;;;;;;16.12;52.69;99350.11;1817412;78;20974;-61
2022/02/23 02:18:44;;;;;;;3.33;2.90;;;;;;;16.12;52.71;99346.63;1819765;78;22002;-58
2022/02/23 02:21:10;;;;;;;3.37;2.95;;;;;;;16.10;52.71;99350.03;1809432;77;21056;-59
2022/02/23 02:23:36;;;;;;;4.42;3.45;;;;;;;16.08;52.72;99353.45;1819509;77;21073;-59
2022/02/23 02:26:05;;;;;;;4.58;2.75;;;;;;;16.08;52.72;99356.94;1800369;78;21185;-59
2022/02/23 02:28:32;;;;;;;4.08;2.90;;;;;;;16.06;52.74;99362.22;1820346;78;21018;-59
2022/02/23 02:30:58;;;;;;;4.05;3.00;;;;;;;16.05;52.73;99363.23;1824032;78;21072;-59
2022/02/23 02:33:24;;;;;;;3.98;3.10;;;;;;;16.04;52.74;99366.97;1794234;78;21013;-60
2022/02/23 02:35:51;;;;;;;3.12;2.77;;;;;;;16.03;52.74;99372.85;1815443;78;21145;-58
2022/02/23 02:38:17;;;;;;;3.27;2.85;;;;;;;16.02;52.76;99375.73;1812314;78;20986;-59
2022/02/23 02:40:44;;;;;;;5.15;2.98;;;;;;;16.00;52.78;99381.83;1797200;78;21045;-58
2022/02/23 02:43:10;;;;;;;3.17;2.87;;;;;;;16.00;52.77;99385.84;1814346;79;21026;-61
2022/02/23 02:45:37;;;;;;;3.72;3.12;;;;;;;15.97;52.77;99384.39;1810047;79;21526;-59
2022/02/23 02:48:04;;;;;;;3.87;2.98;;;;;;;15.97;52.79;99388.94;1807317;79;22083;-60
2022/02/23 02:50:31;;;;;;;3.67;3.02;;;;;;;15.96;52.79;99387.31;1813649;79;21170;-59
2022/02/23 02:52:57;;;;;;;3.10;2.52;;;;;;;15.94;52.78;99396.08;1814327;79;21061;-60
2022/02/23 02:55:25;;;;;;;3.77;3.10;;;;;;;15.91;52.80;99397.30;1811871;79;21081;-59
2022/02/23 02:57:52;;;;;;;4.28;3.00;;;;;;;15.90;52.80;99393.81;1811799;78;21583;-60
2022/02/23 03:00:18;;;;;;;4.28;2.85;;;;;;;15.89;52.83;99399.37;1814308;78;21122;-59
2022/02/23 03:02:45;;;;;;;4.42;3.30;;;;;;;15.88;52.80;99402.58;1805613;78;21037;-58
2022/02/23 03:05:11;;;;;;;3.75;2.83;;;;;;;15.87;52.84;99403.59;1811272;78;21038;-61
2022/02/23 03:07:37;;;;;;;4.30;3.33;;;;;;;15.86;52.81;99410.52;1813099;78;21005;-59
2022/02/23 03:10:05;;;;;;;3.27;2.80;;;;;;;15.84;52.82;99400.02;1827638;77;21009;-59
2022/02/23 03:12:32;;;;;;;3.85;3.10;;;;;;;15.83;52.83;99405.05;1795771;79;21059;-60
2022/02/23 03:14:59;;;;;;;3.52;2.95;;;;;;;15.82;52.82;99407.94;1791857;79;21533;-60
2022/02/23 03:17:25;;;;;;;3.65;2.70;;;;;;;15.80;52.84;99412.68;1792633;78;21010;-60
2022/02/23 03:19:51;;;;;;;4.28;3.05;;;;;;;15.80;52.80;99415.36;1813071;79;21448;-61
2022/02/23 03:22:18;;;;;;;3.30;2.83;;;;;;;15.79;52.81;99411.05;1806533;79;21037;-58
2022/02/23 03:24:44;;;;;;;3.90;2.80;;;;;;;15.78;52.80;99410.23;1728268;81;21090;-58
2022/02/23 03:27:11;;;;;;;3.70;2.67;;;;;;;15.76;52.80;99408.78;1750989;79;21035;-59
2022/02/23 03:29:37;;;;;;;2.90;2.60;;;;;;;15.75;52.81;99413.84;1764019;79;21097;-59
2022/02/23 03:32:06;;;;;;;3.65;2.98;;;;;;;15.73;52.83;99414.86;1764091;79;22082;-60
2022/02/23 03:34:32;;;;;;;3.65;2.85;;;;;;;15.72;52.79;99417.71;1762446;81;21049;-61
2022/02/23 03:36:59;;;;;;;3.77;3.00;;;;;;;15.71;52.79;99420.10;1759391;81;21137;-60
2022/02/23 03:39:25;;;;;;;3.22;2.60;;;;;;;15.69;52.83;99427.00;1763163;80;21004;-58
2022/02/23 03:41:51;;;;;;;2.80;2.47;;;;;;;15.69;52.80;99423.51;1750293;81;21005;-60
2022/02/23 03:44:17;;;;;;;3.20;2.55;;;;;;;15.67;52.80;99427.73;1758113;81;21052;-58
2022/02/23 03:46:44;;;;;;;2.60;2.17;;;;;;;15.67;52.78;99432.27;1761735;81;21050;-59
2022/02/23 03:49:10;;;;;;;4.25;3.05;;;;;;;15.65;52.79;99430.31;1759589;81;21097;-58
2022/02/23 03:51:37;;;;;;;3.30;2.70;;;;;;;15.63;52.78;99433.20;1748029;81;21032;-63
2022/02/23 03:54:03;;;;;;;3.50;2.70;;;;;;;15.63;52.78;99436.39;1766144;81;21022;-58
2022/02/23 03:56:39;;;;;;;2.98;2.67;;;;;;;15.62;52.77;99433.39;1769767;81;21018;-59
2022/02/23 03:59:08;;;;;;;2.87;2.52;;;;;;;15.60;52.76;99430.92;1768742;81;21005;-58
2022/02/23 04:01:36;;;;;;;3.12;2.30;;;;;;;15.58;52.74;99432.98;1765617;80;21168;-59
2022/02/23 04:04:03;;;;;;;3.15;2.33;;;;;;;15.57;52.75;99435.86;1754390;81;21014;-59
2022/02/23 04:06:30;;;;;;;2.55;2.27;;;;;;;15.56;52.75;99432.89;1768029;81;21023;-59
2022/02/23 04:09:00;;;;;;;3.72;2.60;;;;;;;15.54;52.76;99433.91;1766842;81;21047;-58
2022/02/23 04:11:27;;;;;;;2.60;2.27;;;;;;;15.53;52.77;99445.67;1765310;81;21545;-59
2022/02/23 04:13:54;;;;;;;3.22;2.47;;;;;;;15.51;52.77;99445.05;1771182;80;21831;-59
2022/02/23 04:16:21;;;;;;;2.92;2.20;;;;;;;15.51;52.76;99451.75;1762336;81;21019;-59
2022/02/23 04:18:47;;;;;;;2.40;2.20;;;;;;;15.49;52.77;99456.48;1750870;81;21493;-60
2022/02/23 04:21:14;;;;;;;2.50;2.30;;;;;;;15.47;52.76;99454.53;1760496;79;21133;-59
2022/02/23 04:23:41;;;;;;;4.25;2.70;;;;;;;15.46;52.77;99457.41;1756010;80;21307;-59
2022/02/23 04:26:07;;;;;;;3.05;2.40;;;;;;;15.44;52.80;99458.95;1747870;81;21110;-60
2022/02/23 04:28:34;;;;;;;2.75;2.20;;;;;;;15.43;52.78;99464.02;1756963;81;21079;-59
2022/02/23 04:31:01;;;;;;;2.42;2.20;;;;;;;15.41;52.78;99462.03;1763551;81;21030;-58
2022/02/23 04:33:29;;;;;;;3.12;2.60;;;;;;;15.40;52.79;99468.95;1746520;80;21117;-60
2022/02/23 04:35:55;;;;;;;3.27;2.45;;;;;;;15.39;52.78;99474.80;1751647;80;21202;-59
2022/02/23 04:38:22;;;;;;;2.30;2.10;;;;;;;15.39;52.78;99479.34;1755873;81;21087;-60
2022/02/23 04:40:49;;;;;;;2.05;1.90;;;;;;;15.36;52.77;99477.91;1757406;81;20987;-59
2022/02/23 04:43:16;;;;;;;2.72;2.30;;;;;;;15.34;52.80;99483.45;1764540;81;21489;-62
2022/02/23 04:45:42;;;;;;;3.00;2.65;;;;;;;15.33;52.79;99487.14;1764522;81;21038;-59
2022/02/23 04:48:08;;;;;;;2.83;2.20;;;;;;;15.32;52.78;99492.73;1764121;81;21016;-60
2022/02/23 04:50:35;;;;;;;3.12;2.50;;;;;;;15.30;52.79;99496.13;1758608;81;21152;-59
2022/02/23 04:53:01;;;;;;;2.50;2.12;;;;;;;15.28;52.81;99496.33;1750464;81;21027;-60
2022/02/23 04:55:28;;;;;;;2.33;2.10;;;;;;;15.27;52.81;99501.35;1748372;81;21081;-59
2022/02/23 04:57:54;;;;;;;3.40;2.60;;;;;;;15.25;52.82;99503.94;1764408;81;21038;-59
2022/02/23 05:00:21;;;;;;;2.77;2.27;;;;;;;15.25;52.81;99509.28;1755854;80;21482;-61
2022/02/23 05:02:47;;;;;;;2.47;2.25;;;;;;;15.23;52.81;99513.50;1751430;81;21138;-59
2022/02/23 05:05:14;;;;;;;3.30;2.65;;;;;;;15.21;52.81;99517.41;1758287;81;21542;-58
2022/02/23 05:07:41;;;;;;;3.35;2.40;;;;;;;15.20;52.80;99521.10;1755644;81;21043;-59
2022/02/23 05:10:09;;;;;;;2.35;2.08;;;;;;;15.19;52.81;99524.30;1761744;81;21002;-59
2022/02/23 05:12:36;;;;;;;2.40;2.02;;;;;;;15.16;52.83;99520.68;1758128;81;21224;-60
2022/02/23 05:15:03;;;;;;;2.72;2.17;;;;;;;15.14;52.82;99520.91;1749421;80;21808;-61
2022/02/23 05:17:30;;;;;;;3.05;2.58;;;;;;;15.12;52.80;99516.28;1769729;79;21017;-61
2022/02/23 05:19:56;;;;;;;3.90;2.33;;;;;;;15.12;52.83;99520.78;1784691;79;21511;-58
2022/02/23 05:22:23;;;;;;;3.08;2.70;;;;;;;15.11;52.84;99519.97;1743078;81;21027;-59
2022/02/23 05:24:49;;;;;;;3.08;2.35;;;;;;;15.11;52.81;99529.85;1813362;79;21044;-59
2022/02/23 05:27:16;;;;;;;2.40;2.00;;;;;;;15.09;52.79;99527.38;1804089;79;21120;-60
2022/02/23 05:29:42;;;;;;;2.55;2.30;;;;;;;15.08;52.81;99534.25;1813199;78;21018;-61
2022/02/23 05:32:09;;;;;;;2.47;2.17;;;;;;;15.08;52.81;99540.94;1796826;79;20994;-59
2022/02/23 05:34:35;;;;;;;2.77;2.08;;;;;;;15.07;52.79;99544.66;1800074;78;20996;-59
2022/02/23 05:37:03;;;;;;;3.12;2.52;;;;;;;15.06;52.81;99544.34;1808916;78;21069;-60
2022/02/23 05:39:30;;;;;;;2.35;2.00;;;;;;;15.04;52.81;99547.20;1809864;79;21065;-61
2022/02/23 05:41:56;;;;;;;2.77;2.22;;;;;;;15.04;52.79;99547.73;1810245;78;21486;-58
2022/02/23 05:44:23;;;;;;;2.50;2.30;;;;;;;15.02;52.80;99554.61;1814505;78;21026;-60
2022/02/23 05:46:49;;;;;;;2.75;2.33;;;;;;;15.01;52.80;99558.33;1810843;79;20990;-59
2022/02/23 05:49:16;;;;;;;2.42;2.12;;;;;;;15.01;52.78;99562.83;1814471;78;21537;-60
2022/02/23 05:51:43;;;;;;;2.77;2.27;;;;;;;15.02;52.77;99563.16;1810799;78;21137;-60
2022/02/23 05:54:09;;;;;;;2.80;2.30;;;;;;;15.01;52.78;99564.17;1813600;78;21565;-59
2022/02/23 05:56:37;;;;;;;2.98;2.67;;;;;;;15.00;52.77;99570.05;1811312;78;21069;-60
2022/02/23 05:59:03;;;;;;;2.67;2.00;;;;;;;15.00;52.77;99574.05;1806027;78;21494;-60
2022/02/23 06:01:30;;;;;;;2.45;2.22;;;;;;;15.00;52.78;99565.21;1813423;79;21003;-58
2022/02/23 06:03:56;;;;;;;2.75;2.20;;;;;;;15.00;52.75;99569.22;1807583;79;21133;-60
2022/02/23 06:06:24;;;;;;;2.00;1.85;;;;;;;14.98;52.76;99570.75;1814210;79;21011;-59
2022/02/23 06:08:51;;;;;;;3.25;2.40;;;;;;;14.99;52.73;99571.08;1814321;79;20991;-59
2022/02/23 06:11:18;;;;;;;3.22;2.00;;;;;;;14.98;52.74;99572.09;1813828;79;21035;-60
2022/02/23 06:13:50;;;;;;;2.20;2.00;;;;;;;14.98;52.73;99576.11;1813017;79;21104;-61
2022/02/23 06:16:13;;;;;;;2.17;1.90;;;;;;;14.99;52.73;99584.95;1812032;78;21315;-59
2022/02/23 06:18:40;;;;;;;2.65;2.20;;;;;;;14.98;52.72;99581.98;1813629;79;21537;-59
2022/02/23 06:21:06;;;;;;;3.00;1.90;;;;;;;14.99;52.69;99588.47;1797192;78;21043;-59
2022/02/23 06:23:33;;;;;;;2.60;2.05;;;;;;;14.99;52.67;99589.81;1798426;78;21553;-59
2022/02/23 06:25:59;;;;;;;2.65;2.20;;;;;;;15.00;52.65;99598.13;1824466;78;20994;-58
2022/02/23 06:28:26;;;;;;;2.45;2.25;;;;;;;14.99;52.65;99596.50;1818648;78;21194;-58
2022/02/23 06:30:53;;;;;;;3.17;2.20;;;;;;;15.00;52.62;99594.11;1804258;77;21045;-59
2022/02/23 06:33:22;;;;;;;2.80;1.85;;;;;;;15.00;52.62;99596.79;1809315;79;20990;-59
2022/02/23 06:35:49;;;;;;;1.98;1.80;;;;;;;15.01;52.60;99594.94;1801450;78;21550;-59
2022/02/23 06:38:16;;;;;;;2.20;2.00;;;;;;;15.01;52.57;99601.62;1814238;79;21436;-58
2022/02/23 06:40:42;;;;;;;2.42;2.12;;;;;;;15.01;52.55;99607.81;1800394;79;21210;-60
2022/02/23 06:43:09;;;;;;;2.52;1.87;;;;;;;15.01;52.55;99602.47;1811554;78;21606;-58
2022/02/23 06:45:35;;;;;;;2.67;2.12;;;;;;;15.03;52.50;99606.28;1804973;78;21061;-58
2022/02/23 06:48:02;;;;;;;1.87;1.70;;;;;;;15.03;52.49;99611.11;1804838;79;21536;-60
2022/02/23 06:50:29;;;;;;;2.27;1.85;;;;;;;15.03;52.47;99608.44;1814185;78;21092;-58
2022/02/23 06:52:55;;;;;;;2.02;1.85;;;;;;;15.04;52.43;99614.09;1814310;77;21142;-60
2022/02/23 06:55:22;;;;;;;2.50;1.98;;;;;;;15.04;52.42;99607.40;1796401;79;21006;-59
2022/02/23 06:57:48;;;;;;;3.35;2.10;;;;;;;15.05;52.40;99609.58;1800810;79;20999;-60
2022/02/23 07:00:16;;;;;;;2.83;2.00;;;;;;;15.04;52.39;99616.77;1784711;78;20968;-60
2022/02/23 07:02:43;;;;;;;2.75;2.00;;;;;;;15.06;52.38;99612.03;1808796;77;21057;-60
2022/02/23 07:05:09;;;;;;;2.35;2.00;;;;;;;15.06;52.35;99620.06;1797569;79;21172;-59
2022/02/23 07:07:36;;;;;;;2.27;2.08;;;;;;;15.07;52.28;99619.57;1794215;79;21014;-60
2022/02/23 07:10:11;;;;;;;2.45;2.25;;;;;;;15.07;52.28;99619.57;1785777;79;21069;-59
2022/02/23 07:12:39;;;;;;;1.72;1.62;;;;;;;15.08;52.26;99618.01;1779797;78;21013;-59
2022/02/23 07:15:06;;;;;;;2.10;1.92;;;;;;;15.09;52.24;99625.02;1795870;78;21014;-60
2022/02/23 07:17:34;;;;;;;2.62;1.90;;;;;;;15.10;52.19;99624.50;1804164;78;21068;-58
2022/02/23 07:20:01;;;;;;;2.05;1.70;;;;;;;15.12;52.20;99630.47;1798038;77;21659;-59
2022/02/23 07:22:27;;;;;;;6.50;2.25;;;;;;;15.11;52.14;99628.84;1807955;77;21105;-66
2022/02/23 07:24:53;;;;;;;5.42;2.35;;;;;;;15.13;55.00;99594.69;1809295;78;21635;-68
2022/02/23 07:27:20;;;;;;;5.90;2.35;;;;;;;15.26;62.74;99645.57;1821084;78;21038;-64
2022/02/23 07:29:46;;;;;;;3.98;2.42;;;;;;;15.50;64.86;99642.02;1814185;77;21529;-69
2022/02/23 07:32:13;;;;;;;8.98;2.98;;;;;;;15.77;65.20;99638.91;1802920;77;21079;-74
2022/02/23 07:34:41;;;;;;;4.12;2.12;;;;;;;16.01;60.74;99644.69;1800400;77;21521;-70
2022/02/23 07:37:07;;;;;;;6.25;2.45;;;;;;;16.07;51.10;99645.19;1805659;78;21552;-73
2022/02/23 07:39:34;;;;;;;3.22;2.20;;;;;;;15.96;46.63;99644.50;1806403;77;21010;-70
2022/02/23 07:42:00;;;;;;;4.30;2.45;;;;;;;15.76;44.27;99648.48;1804203;78;21107;-70
2022/02/23 07:44:28;;;;;;;3.20;2.17;;;;;;;15.53;43.08;99649.14;1805574;78;21046;-70
2022/02/23 07:46:54;;;;;;;6.45;2.45;;;;;;;15.32;42.13;99655.98;1803275;78;21086;-65
2022/02/23 07:49:20;;;;;;;4.45;2.47;;;;;;;15.15;46.56;99662.20;1796454;78;21096;-74
2022/02/23 07:51:47;;;;;;;4.22;1.90;;;;;;;15.25;49.55;99663.97;1802256;78;21544;-67
2022/02/23 07:54:13;;;;;;;4.45;1.98;;;;;;;15.49;50.46;99663.96;1792800;79;21073;-72
2022/02/23 07:56:40;;;;;;;3.90;2.42;;;;;;;15.76;50.41;99617.19;1808826;78;21081;-70
2022/02/23 07:59:06;;;;;;;3.65;2.45;;;;;;;16.03;50.15;99615.33;1801170;77;20986;-70
2022/02/23 08:01:38;;;;;;;2.35;1.92;;;;;;;16.27;50.07;99616.53;1806148;77;21565;-71
2022/02/23 08:04:05;;;;;;;3.12;2.58;;;;;;;16.49;50.11;99619.78;1813380;78;21307;-70
2022/02/23 08:06:32;;;;;;;3.62;2.27;;;;;;;16.69;50.17;99621.62;1808265;79;21062;-73
2022/02/23 08:08:59;;;;;;;5.15;2.80;;;;;;;16.87;50.24;99615.59;1803457;78;21047;-70
2022/02/23 08:11:28;;;;;;;3.27;2.40;;;;;;;17.04;50.34;99613.27;1789614;79;21013;-71
2022/02/23 08:14:02;;;;;;;4.28;2.42;;;;;;;17.19;50.40;99616.49;1807410;78;21002;-72
2022/02/23 08:19:32;;;;;;;4.75;2.72;;;;;;;17.48;50.48;99619.61;1810406;79;21747;-72
2022/02/23 08:22:05;;;;;;;4.08;2.55;;;;;;;17.62;50.48;99612.31;1803876;79;21081;-58
2022/02/23 08:24:34;;;;;;;4.58;2.40;;;;;;;17.73;50.35;99660.47;1807543;77;21149;-59
2022/02/23 08:27:01;;;;;;;3.12;2.20;;;;;;;17.77;50.21;99652.28;1803706;79;21054;-62
2022/02/23 08:29:28;;;;;;;4.35;2.20;;;;;;;17.73;50.13;99651.92;1792699;79;20987;-60
2022/02/23 08:31:56;;;;;;;3.70;2.40;;;;;;;17.69;50.11;99656.05;1813315;78;23281;-58
2022/02/23 08:34:24;;;;;;;2.15;1.95;;;;;;;17.63;50.13;99648.86;1801522;79;21031;-59
2022/02/23 08:36:50;;;;;;;3.98;2.45;;;;;;;17.57;50.18;99651.08;1800440;78;21014;-60
2022/02/23 08:39:17;;;;;;;2.87;2.27;;;;;;;17.52;50.25;99649.55;1800198;78;21558;-60
2022/02/23 08:41:44;;;;;;;3.22;2.27;;;;;;;17.47;50.30;99645.65;1804377;78;21592;-63
2022/02/23 08:44:12;;;;;;;2.52;1.87;;;;;;;17.44;50.38;99646.09;1810242;78;21065;-58
2022/02/23 08:46:41;;;;;;;3.30;2.15;;;;;;;17.41;50.43;99653.23;1808883;78;20983;-59
2022/02/23 08:49:07;;;;;;;2.98;2.17;;;;;;;17.39;50.47;99653.15;1824483;78;21030;-59
2022/02/23 08:51:34;;;;;;;4.47;2.10;;;;;;;17.36;50.52;99654.38;1811720;78;21506;-60
2022/02/23 08:54:01;;;;;;;2.58;2.25;;;;;;;17.36;50.57;99651.70;1825399;78;21061;-59
2022/02/23 08:56:27;;;;;;;2.40;2.20;;;;;;;17.36;50.60;99658.94;1820959;78;21909;-60
2022/02/23 08:58:53;;;;;;;3.12;1.95;;;;;;;17.35;50.64;99651.94;1825038;78;21072;-60
2022/02/23 09:01:19;;;;;;;4.42;2.40;;;;;;;17.35;50.65;99653.28;1823123;78;21540;-59
2022/02/23 09:03:46;;;;;;;3.22;2.10;;;;;;;17.35;50.67;99654.09;1819508;78;21129;-59
2022/02/23 09:06:12;;;;;;;5.42;2.70;;;;;;;17.37;50.67;99649.86;1814401;78;21001;-61
2022/02/23 09:08:40;;;;;;;3.02;2.40;;;;;;;17.38;50.59;99642.91;1821158;78;21150;-59
2022/02/23 09:11:06;;;;;;;3.52;2.30;;;;;;;17.40;50.57;99646.23;1807064;78;21489;-59
2022/02/23 09:13:33;;;;;;;4.37;2.65;;;;;;;17.42;50.50;99648.67;1815318;78;21023;-59
2022/02/23 09:16:01;;;;;;;2.65;2.15;;;;;;;17.44;50.52;99645.25;1814837;78;21084;-58
2022/02/23 09:18:28;;;;;;;2.33;2.10;;;;;;;17.47;50.49;99652.36;1822007;77;21017;-59
2022/02/23 09:20:54;;;;;;;4.80;2.27;;;;;;;17.51;50.49;99654.10;1822540;78;21418;-61
2022/02/23 09:23:21;;;;;;;3.67;2.40;;;;;;;17.56;50.37;99652.10;1808966;78;21646;-59
2022/02/23 09:25:47;;;;;;;4.67;2.47;;;;;;;17.60;50.34;99649.31;1801270;78;21096;-60
2022/02/23 09:28:14;;;;;;;3.67;2.10;;;;;;;17.63;50.26;99643.48;1801850;78;21079;-58
2022/02/23 09:30:41;;;;;;;3.45;2.42;;;;;;;17.66;50.16;99651.94;1809904;78;21025;-60
2022/02/23 09:33:08;;;;;;;2.92;1.70;;;;;;;17.70;50.08;99645.63;1811101;78;21125;-59
2022/02/23 09:35:34;;;;;;;2.05;1.82;;;;;;;17.73;50.09;99639.83;1820967;77;21030;-60
2022/02/23 09:38:01;;;;;;;2.60;1.92;;;;;;;17.76;50.00;99650.13;1807202;77;21021;-60
2022/02/23 09:40:30;;;;;;;3.17;1.95;;;;;;;17.80;49.97;99659.39;1821047;78;21089;-60
2022/02/23 09:42:58;;;;;;;2.27;1.80;;;;;;;17.83;49.95;99652.78;1807653;77;20988;-59
2022/02/23 09:45:25;;;;;;;3.55;2.17;;;;;;;17.86;49.94;99651.83;1818628;78;22294;-60
2022/02/23 09:47:51;;;;;;;2.30;2.00;;;;;;;17.90;49.94;99650.06;1794362;79;21069;-59
2022/02/23 09:50:21;;;;;;;3.47;2.60;;;;;;;17.94;49.88;99655.30;1803340;79;21120;-66
2022/02/23 09:52:48;;;;;;;8.20;2.15;;;;;;;18.00;53.42;99613.60;1794768;78;21620;-69
2022/02/23 09:55:15;;;;;;;8.58;2.62;;;;;;;18.16;55.90;99613.56;1804923;79;21085;-68
2022/02/23 09:57:42;;;;;;;6.95;2.67;;;;;;;18.37;56.69;99612.83;1806285;77;21181;-66
2022/02/23 10:00:09;;;;;;;6.05;2.55;;;;;;;18.61;57.10;99615.18;1806730;77;21052;-68
2022/02/23 10:02:36;;;;;;;3.22;2.20;;;;;;;18.82;57.25;99612.59;1806603;78;21009;-70
2022/02/23 10:05:05;;;;;;;5.25;2.60;;;;;;;19.03;57.21;99612.13;1796564;77;21108;-69
2022/02/23 10:07:38;;;;;;;7.05;2.90;;;;;;;19.23;56.94;99609.69;1794651;79;21056;-69
2022/02/23 10:10:05;;;;;;;3.15;2.30;;;;;;;19.41;56.59;99606.95;1811265;78;21150;-69
2022/02/23 10:12:35;;;;;;;5.10;2.58;;;;;;;19.59;56.16;99607.95;1812502;78;21014;-70
2022/02/23 10:15:18;;;;;;;3.72;2.35;;;;;;;19.75;55.78;99611.87;1828372;77;21072;-68
2022/02/23 10:17:48;;;;;;;3.83;2.55;;;;;;;19.90;55.36;99616.83;1815472;78;21067;-67
2022/02/23 10:20:28;;;;;;;4.72;2.50;;;;;;;20.04;54.95;99611.50;1798833;78;21005;-67
2022/02/23 10:23:18;;;;;;;5.97;2.62;;;;;;;20.16;54.55;99610.16;1812375;77;21150;-68
2022/02/23 10:25:57;;;;;;;6.20;2.67;;;;;;;20.27;54.19;99610.69;1789472;78;21036;-68
2022/02/23 10:28:32;;;;;;;5.62;3.00;;;;;;;20.38;53.84;99607.70;1805784;79;21081;-68
2022/02/23 10:31:01;;;;;;;7.08;3.42;;;;;;;20.49;53.54;99604.69;1808936;77;21033;-68
2022/02/23 10:33:36;;;;;;;5.03;2.77;;;;;;;20.56;53.23;99608.90;1813499;79;21056;-67
2022/02/23 10:36:12;;;;;;;6.15;2.85;;;;;;;20.64;53.03;99604.23;1814108;78;21159;-68
2022/02/23 10:38:43;;;;;;;2.95;2.30;;;;;;;20.72;52.78;99598.46;1805699;78;21491;-65
2022/02/23 10:41:31;;;;;;;6.15;2.70;;;;;;;20.79;52.54;99603.20;1811416;78;20995;-65
2022/02/23 10:43:59;;;;;;;8.63;2.27;;;;;;;20.87;52.36;99604.17;1815957;77;21023;-65
2022/02/23 10:46:25;;;;;;;8.38;3.00;;;;;;;20.94;52.31;99606.22;1813436;78;21528;-66
2022/02/23 10:48:59;;;;;;;3.30;2.60;;;;;;;21.00;52.24;99607.14;1815851;77;21121;-67
2022/02/23 10:51:29;;;;;;;4.87;2.75;;;;;;;21.07;52.19;99602.94;1802925;78;21092;-63
2022/02/23 10:54:07;;;;;;;;;;;;;;;21.14;52.12;99608.48;1808253;78;21073;-66
2022/02/23 10:56:37;;;;;;;6.62;3.27;;;;;;;21.20;51.98;99610.22;1799826;78;20165;-70
2022/02/23 10:59:08;;;;;;;3.92;2.52;;;;;;;21.24;52.02;99607.86;1812137;77;21017;-68
2022/02/23 11:01:34;;;;;;;8.38;3.08;;;;;;;21.30;51.97;99604.19;1793590;77;21139;-70
2022/02/23 11:04:01;;;;;;;6.28;3.08;;;;;;;21.35;51.90;99605.64;1799323;77;20987;-67
2022/02/23 11:06:28;;;;;;;4.53;3.20;;;;;;;21.40;51.81;99604.90;1813632;77;21057;-65
2022/02/23 11:08:55;;;;;;;7.20;3.35;;;;;;;21.44;51.73;99595.81;1812500;77;21101;-65
2022/02/23 11:11:24;;;;;;;7.67;3.42;;;;;;;21.48;51.62;99592.91;1822291;78;21096;-65
2022/02/23 11:13:52;;;;;;;5.75;2.60;;;;;;;21.53;51.47;99604.63;1819195;78;21553;-63
2022/02/23 11:16:19;;;;;;;7.58;3.20;;;;;;;21.57;51.36;99602.27;1811248;78;21010;-66
2022/02/23 11:18:47;;;;;;;8.18;3.55;;;;;;;21.61;51.33;99598.00;1811011;77;21542;-69
2022/02/23 11:21:17;;;;;;;3.12;2.60;;;;;;;21.65;51.26;99596.98;1821538;78;21022;-68
2022/02/23 11:23:45;;;;;;;4.85;2.62;;;;;;;21.69;51.11;99594.08;1817442;78;21056;-69
2022/02/23 11:26:15;;;;;;;3.67;2.90;;;;;;;21.72;51.01;99604.42;1817642;77;21085;-69
2022/02/23 11:29:08;;;;;;;7.62;3.12;;;;;;;21.76;50.88;99598.27;1804772;78;21071;-70
2022/02/23 11:31:38;;;;;;;3.77;2.77;;;;;;;21.80;50.77;99597.25;1801238;78;21087;-69
2022/02/23 11:34:09;;;;;;;5.00;2.37;;;;;;;21.85;50.65;99595.17;1817151;78;22152;-66
2022/02/23 11:36:42;;;;;;;4.28;2.70;;;;;;;21.89;50.58;99594.42;1822639;77;21025;-70
2022/02/23 11:39:15;;;;;;;5.40;2.67;;;;;;;21.94;50.50;99596.37;1805675;78;21842;-67
2022/02/23 11:41:54;;;;;;;4.20;2.80;;;;;;;21.97;50.35;99590.48;1813744;77;21555;-67